createdAt,value
2019-04-11T00:03:05.049Z,142454.02
2019-04-11T00:08:01.830Z,142457.50
2019-04-11T00:12:59.069Z,142443.52
2019-04-11T00:17:55.098Z,142406.16
2019-04-11T00:22:51.536Z,142371.13
2019-04-11T00:27:48.969Z,142382.77
2019-04-11T00:32:45.538Z,142392.11
2019-04-11T00:37:41.503Z,142359.44
2019-04-11T00:42:37.434Z,142343.11
2019-04-11T00:47:33.373Z,142337.27
2019-04-11T00:52:29.501Z,142297.56
2019-04-11T00:57:25.614Z,142291.72
2019-04-11T01:02:21.542Z,142257.88
2019-04-11T01:07:18.525Z,142266.06
2019-04-11T01:12:14.659Z,142270.70
2019-04-11T01:17:10.586Z,142231.06
2019-04-11T01:22:07.651Z,142214.69
2019-04-11T01:27:04.143Z,142194.88
2019-04-11T01:32:04.909Z,142212.39
2019-04-11T01:37:01.671Z,142186.69
2019-04-11T01:41:58.682Z,142176.20
2019-04-11T01:46:54.786Z,142149.34
2019-04-11T01:51:50.834Z,142133.03
2019-04-11T01:56:47.517Z,142165.72
2019-04-11T02:01:45.594Z,142105.03
2019-04-11T02:06:42.425Z,142130.73
2019-04-11T02:11:39.446Z,142094.56
2019-04-11T02:16:35.561Z,142091.06
2019-04-11T02:21:31.776Z,142088.72
2019-04-11T02:26:33.548Z,142064.22
2019-04-11T02:31:30.564Z,142074.75
2019-04-11T02:36:27.354Z,142049.06
2019-04-11T02:41:25.472Z,142058.37
2019-04-11T02:46:31.933Z,142035.08
2019-04-11T02:51:20.585Z,142022.27
2019-04-11T02:56:17.405Z,142028.09
2019-04-11T03:01:15.472Z,142004.75
2019-04-11T03:06:11.740Z,141989.59
2019-04-11T03:11:10.693Z,141997.77
2019-04-11T03:16:23.912Z,141983.75
2019-04-11T03:21:10.319Z,141981.45
2019-04-11T03:26:03.183Z,141955.78
2019-04-11T03:31:37.496Z,141941.81
2019-04-11T03:36:53.929Z,141948.80
2019-04-11T03:41:12.829Z,141937.13
2019-04-11T03:46:16.010Z,141913.84
2019-04-11T03:50:55.498Z,141904.50
2019-04-11T03:55:53.705Z,141878.87
2019-04-11T04:00:52.867Z,141897.53
2019-04-11T04:05:48.791Z,141913.84
2019-04-11T04:11:05.637Z,141890.50
2019-04-11T04:16:18.755Z,141868.36
2019-04-11T04:21:18.891Z,141867.22
2019-04-11T04:26:16.823Z,141848.56
2019-04-11T04:31:13.985Z,141864.88
2019-04-11T04:36:11.289Z,141854.41
2019-04-11T04:41:25.210Z,141854.41
2019-04-11T04:46:23.720Z,141846.22
2019-04-11T04:51:09.073Z,141833.42
2019-04-11T04:56:04.153Z,141799.62
2019-04-11T05:01:01.413Z,141831.08
2019-04-11T05:05:58.435Z,141840.39
2019-04-11T05:10:55.776Z,141834.56
2019-04-11T05:16:04.465Z,141848.56
2019-04-11T05:20:49.709Z,141860.23
2019-04-11T05:25:46.619Z,141856.75
2019-04-11T05:30:42.647Z,141874.20
2019-04-11T05:35:39.559Z,141895.19
2019-04-11T05:40:35.594Z,141918.47
2019-04-11T05:45:31.790Z,141968.64
2019-04-11T05:50:29.062Z,141996.58
2019-04-11T05:55:26.454Z,141951.14
2019-04-11T06:00:41.013Z,142018.77
2019-04-11T06:05:43.178Z,142110.88
2019-04-11T06:10:57.999Z,142418.98
2019-04-11T06:16:01.345Z,142656.14
2019-04-11T06:21:01.925Z,142637.44
2019-04-11T06:31:24.819Z,142607.05
2019-04-11T06:36:26.639Z,142588.34
2019-04-11T06:41:27.627Z,142400.31
2019-04-11T06:46:50.477Z,142319.73
2019-04-11T06:51:41.624Z,142322.09
2019-04-11T06:56:39.461Z,142355.95
2019-04-11T07:01:36.239Z,142549.81
2019-04-11T07:06:37.750Z,142581.34
2019-04-11T07:11:48.497Z,142557.95
2019-04-11T07:17:07.143Z,142525.27
2019-04-11T07:22:03.066Z,142625.73
2019-04-11T07:27:01.001Z,142704.05
2019-04-11T07:32:07.666Z,142822.19
2019-04-11T07:37:23.532Z,142994.16
2019-04-11T07:42:25.927Z,143084.27
2019-04-11T07:47:26.389Z,143206.03
2019-04-11T07:52:22.166Z,143208.34
2019-04-11T07:57:36.280Z,143256.39
2019-04-11T08:02:53.186Z,143346.59
2019-04-11T08:08:00.025Z,143538.84
2019-04-11T08:12:58.258Z,143388.81
2019-04-11T08:17:54.377Z,143547.02
2019-04-11T08:22:52.343Z,143433.33
2019-04-11T08:28:00.064Z,143286.81
2019-04-11T08:32:55.744Z,143284.50
2019-04-11T08:38:12.021Z,143529.45
2019-04-11T08:43:10.916Z,143304.45
2019-04-11T08:48:08.855Z,143545.86
2019-04-11T08:53:16.519Z,143339.59
2019-04-11T08:58:16.170Z,143495.45
2019-04-11T09:03:33.567Z,143728.80
2019-04-11T09:08:54.410Z,143795.75
2019-04-11T09:14:11.935Z,143688.95
2019-04-11T09:19:14.653Z,143463.81
2019-04-11T09:24:24.798Z,143923.69
2019-04-11T09:29:22.604Z,143869.66
2019-04-11T09:34:23.863Z,143782.84
2019-04-11T09:44:47.023Z,144065.77
2019-04-11T09:49:53.846Z,144038.73
2019-04-11T09:54:54.821Z,144137.47
2019-04-11T10:00:05.823Z,144029.34
2019-04-11T10:05:05.279Z,143972.97
2019-04-11T10:10:04.544Z,143734.72
2019-04-11T10:15:03.144Z,143894.31
2019-04-11T10:20:00.748Z,144014.06
2019-04-11T10:25:05.212Z,144003.52
2019-04-11T10:30:06.563Z,143792.23
2019-04-11T10:35:22.074Z,143808.66
2019-04-11T10:40:32.275Z,143832.11
2019-04-11T10:45:31.197Z,144157.44
2019-04-11T10:50:46.623Z,143978.84
2019-04-11T10:56:02.543Z,143909.59
2019-04-11T11:01:00.357Z,143812.17
2019-04-11T11:06:00.732Z,143765.23
2019-04-11T11:10:59.713Z,143633.81
2019-04-11T11:15:56.054Z,143742.95
2019-04-11T11:20:56.752Z,143559.95
2019-04-11T11:26:10.954Z,143484.92
2019-04-11T11:31:08.802Z,143550.58
2019-04-11T11:36:23.821Z,143727.64
2019-04-11T11:41:38.655Z,143828.59
2019-04-11T11:46:42.643Z,143883.78
2019-04-11T11:51:58.436Z,143847.38
2019-04-11T11:56:56.152Z,143778.14
2019-04-11T12:01:54.410Z,143778.14
2019-04-11T12:06:55.939Z,143788.69
2019-04-11T12:12:02.448Z,143884.94
2019-04-11T12:17:05.189Z,143965.94
2019-04-11T12:22:02.241Z,143982.38
2019-04-11T12:27:00.506Z,143971.81
2019-04-11T12:32:01.137Z,143906.06
2019-04-11T12:36:58.421Z,143956.55
2019-04-11T12:41:56.423Z,143980.00
2019-04-11T12:47:00.306Z,144102.19
2019-04-11T12:52:15.001Z,144038.73
2019-04-11T12:57:29.099Z,144023.47
2019-04-11T13:02:46.283Z,144083.36
2019-04-11T13:08:00.679Z,143958.91
2019-04-11T13:13:15.606Z,144038.73
2019-04-11T13:18:30.323Z,144015.27
2019-04-11T13:23:50.373Z,143861.47
2019-04-11T13:29:04.683Z,143888.44
2019-04-11T13:34:02.521Z,143920.14
2019-04-11T13:39:02.363Z,143808.66
2019-04-11T13:43:56.871Z,143759.36
2019-04-11T13:49:12.986Z,143660.80
2019-04-11T13:54:24.911Z,143714.75
2019-04-11T13:59:25.753Z,143667.83
2019-04-11T14:04:29.654Z,143672.48
2019-04-11T14:09:31.304Z,143611.53
2019-04-11T14:14:27.546Z,143670.19
2019-04-11T14:19:34.238Z,143515.38
2019-04-11T14:24:32.623Z,143690.11
2019-04-11T14:29:30.442Z,143611.53
2019-04-11T14:34:29.343Z,143654.92
2019-04-11T14:39:27.383Z,143698.33
2019-04-11T14:44:25.221Z,143688.95
2019-04-11T14:49:21.148Z,143711.23
2019-04-11T14:54:23.702Z,143780.50
2019-04-11T14:59:27.627Z,143768.75
2019-04-11T15:04:43.646Z,143752.34
2019-04-11T15:09:46.773Z,143695.97
2019-04-11T15:14:47.506Z,143654.92
2019-04-11T15:19:44.900Z,143652.56
2019-04-11T15:24:43.405Z,143684.23
2019-04-11T15:29:39.306Z,143646.70
2019-04-11T15:34:42.955Z,143606.86
2019-04-11T15:39:44.610Z,143627.94
2019-04-11T15:44:48.253Z,143611.53
2019-04-11T15:50:03.096Z,143615.03
2019-04-11T15:55:19.321Z,143569.33
2019-04-11T16:00:17.463Z,143588.09
2019-04-11T16:05:18.038Z,143593.92
2019-04-11T16:10:14.969Z,143590.41
2019-04-11T16:15:12.812Z,143548.22
2019-04-11T16:20:10.046Z,143548.22
2019-04-11T16:25:11.469Z,143558.75
2019-04-11T16:30:10.219Z,143545.86
2019-04-11T16:35:11.991Z,143513.06
2019-04-11T16:40:26.457Z,143534.13
2019-04-11T16:45:39.410Z,143504.84
2019-04-11T16:50:35.386Z,143459.09
2019-04-11T16:55:32.117Z,143433.33
2019-04-11T17:00:28.266Z,143384.09
2019-04-11T17:05:26.802Z,143313.81
2019-04-11T17:10:41.011Z,143355.97
2019-04-11T17:15:37.100Z,143344.30
2019-04-11T17:20:35.687Z,143285.66
2019-04-11T17:25:30.862Z,143320.84
2019-04-11T17:30:26.790Z,143317.33
2019-04-11T17:35:22.732Z,143313.81
2019-04-11T17:40:18.731Z,143262.25
2019-04-11T17:45:14.668Z,143271.63
2019-04-11T17:50:10.601Z,143257.55
2019-04-11T17:55:07.045Z,143245.81
2019-04-11T18:00:06.874Z,143217.72
2019-04-11T18:05:04.412Z,143215.41
2019-04-11T18:10:00.342Z,143182.59
2019-04-11T18:14:56.270Z,143163.86
2019-04-11T18:19:52.215Z,143165.06
2019-04-11T18:24:54.099Z,143161.50
2019-04-11T18:29:52.584Z,143149.83
2019-04-11T18:34:47.865Z,143135.77
2019-04-11T18:39:43.801Z,143122.87
2019-04-11T18:44:39.726Z,143117.03
2019-04-11T18:49:35.645Z,143117.03
2019-04-11T18:54:34.148Z,143112.37
2019-04-11T18:59:33.815Z,143100.66
2019-04-11T19:04:32.763Z,143091.28
2019-04-11T19:09:26.030Z,143056.19
2019-04-11T19:14:24.558Z,143063.19
2019-04-11T19:19:19.795Z,143033.94
2019-04-11T19:24:16.032Z,143047.97
2019-04-11T19:29:11.963Z,143023.39
2019-04-11T19:34:08.905Z,143025.75
2019-04-11T19:39:06.829Z,143025.75
2019-04-11T19:44:03.059Z,143007.02
2019-04-11T19:48:59.477Z,143009.38
2019-04-11T19:53:55.717Z,142977.78
2019-04-11T19:58:51.666Z,142990.64
2019-04-11T20:03:47.584Z,142989.44
2019-04-11T20:08:43.545Z,142974.27
2019-04-11T20:13:39.471Z,142949.69
2019-04-11T20:18:35.395Z,142983.63
2019-04-11T20:23:31.334Z,142964.91
2019-04-11T20:28:27.233Z,142967.22
2019-04-11T20:33:27.457Z,142923.92
2019-04-11T20:38:20.996Z,142940.34
2019-04-11T20:43:16.930Z,142897.05
2019-04-11T20:48:12.854Z,142921.63
2019-04-11T20:53:12.930Z,142901.70
2019-04-11T20:58:09.914Z,142914.56
2019-04-11T21:03:04.477Z,142911.06
2019-04-11T21:08:02.971Z,142918.11
2019-04-11T21:12:58.252Z,142911.06
2019-04-11T21:17:56.128Z,142892.34
2019-04-11T21:22:53.918Z,142890.03
2019-04-11T21:27:49.929Z,142885.34
2019-04-11T21:32:45.857Z,142887.69
2019-04-11T21:37:41.798Z,142867.81
2019-04-11T21:42:37.800Z,142864.27
2019-04-11T21:47:36.898Z,142866.62
2019-04-11T21:52:32.299Z,142886.48
2019-04-11T21:57:28.510Z,142892.34
2019-04-11T22:02:24.908Z,142842.05
2019-04-11T22:07:20.956Z,142826.84
2019-04-11T22:12:16.883Z,142844.41
2019-04-11T22:17:15.257Z,142850.25
2019-04-11T22:22:10.739Z,142847.91
2019-04-11T22:27:06.672Z,142822.19
2019-04-11T22:32:02.801Z,142840.91
2019-04-11T22:36:59.953Z,142819.84
2019-04-11T22:41:56.554Z,142850.25
2019-04-11T22:46:52.582Z,142824.53
2019-04-11T22:51:48.551Z,142817.48
2019-04-11T22:56:44.560Z,142825.69
2019-04-11T23:01:41.389Z,142845.56
2019-04-11T23:06:37.366Z,142836.20
2019-04-11T23:11:33.413Z,142831.55
2019-04-11T23:16:29.342Z,142808.13
2019-04-11T23:21:25.337Z,142803.48
2019-04-11T23:26:21.422Z,142782.42
2019-04-11T23:31:19.729Z,142766.06
2019-04-11T23:36:15.384Z,142802.33
2019-04-11T23:41:11.643Z,142755.55
2019-04-11T23:46:07.579Z,142719.25
2019-04-11T23:51:03.577Z,142759.06
2019-04-11T23:56:00.133Z,142745.00
